sensor_id;sensor_type;location;lat;lon;timestamp;pressure;altitude;pressure_sealevel;temperature;humidity
77454;BME280;66538;53.150;18.160;2023-12-29T00:00:48;100796.75;;;6.69;97.96
77454;BME280;66538;53.150;18.160;2023-12-29T00:03:35;100798.48;;;6.68;97.81
77454;BME280;66538;53.150;18.160;2023-12-29T00:06:02;100797.34;;;6.64;97.84
77454;BME280;66538;53.150;18.160;2023-12-29T00:08:29;100799.80;;;6.60;97.83
77454;BME280;66538;53.150;18.160;2023-12-29T00:10:55;100799.53;;;6.54;98.19
77454;BME280;66538;53.150;18.160;2023-12-29T00:13:22;100790.76;;;6.50;98.25
77454;BME280;66538;53.150;18.160;2023-12-29T00:15:54;100781.70;;;6.48;98.27
77454;BME280;66538;53.150;18.160;2023-12-29T00:18:21;100778.88;;;6.43;98.61
77454;BME280;66538;53.150;18.160;2023-12-29T00:20:48;100778.67;;;6.39;98.83
77454;BME280;66538;53.150;18.160;2023-12-29T00:23:15;100775.98;;;6.36;98.85
77454;BME280;66538;53.150;18.160;2023-12-29T00:25:42;100773.15;;;6.33;98.74
77454;BME280;66538;53.150;18.160;2023-12-29T00:28:09;100766.50;;;6.28;98.95
77454;BME280;66538;53.150;18.160;2023-12-29T00:30:38;100757.52;;;6.25;99.09
77454;BME280;66538;53.150;18.160;2023-12-29T00:33:05;100759.71;;;6.24;99.16
77454;BME280;66538;53.150;18.160;2023-12-29T00:35:36;100759.90;;;6.22;99.37
77454;BME280;66538;53.150;18.160;2023-12-29T00:38:04;100758.35;;;6.20;99.37
77454;BME280;66538;53.150;18.160;2023-12-29T00:40:32;100764.63;;;6.18;99.25
77454;BME280;66538;53.150;18.160;2023-12-29T00:43:01;100760.63;;;6.15;99.55
77454;BME280;66538;53.150;18.160;2023-12-29T00:45:28;100755.88;;;6.15;99.68
77454;BME280;66538;53.150;18.160;2023-12-29T00:48:00;100751.08;;;6.12;99.86
77454;BME280;66538;53.150;18.160;2023-12-29T00:50:26;100748.99;;;6.11;99.92
77454;BME280;66538;53.150;18.160;2023-12-29T00:52:53;100748.06;;;6.10;99.74
77454;BME280;66538;53.150;18.160;2023-12-29T00:55:19;100742.33;;;6.08;99.89
77454;BME280;66538;53.150;18.160;2023-12-29T00:57:46;100746.45;;;6.07;99.90
77454;BME280;66538;53.150;18.160;2023-12-29T01:00:13;100745.19;;;6.06;99.84
77454;BME280;66538;53.150;18.160;2023-12-29T01:02:40;100740.45;;;6.05;99.93
77454;BME280;66538;53.150;18.160;2023-12-29T01:05:06;100739.34;;;6.02;100.00
77454;BME280;66538;53.150;18.160;2023-12-29T01:07:33;100730.96;;;6.01;99.96
77454;BME280;66538;53.150;18.160;2023-12-29T01:10:00;100728.42;;;5.99;99.98
77454;BME280;66538;53.150;18.160;2023-12-29T01:12:27;100736.27;;;5.98;99.95
77454;BME280;66538;53.150;18.160;2023-12-29T01:14:54;100738.45;;;5.96;100.00
77454;BME280;66538;53.150;18.160;2023-12-29T01:17:21;100732.73;;;5.96;100.00
77454;BME280;66538;53.150;18.160;2023-12-29T01:19:48;100728.45;;;5.94;100.00
77454;BME280;66538;53.150;18.160;2023-12-29T01:22:15;100724.67;;;5.91;100.00
77454;BME280;66538;53.150;18.160;2023-12-29T01:24:41;100719.23;;;5.88;99.99
77454;BME280;66538;53.150;18.160;2023-12-29T01:27:08;100715.38;;;5.87;100.00
77454;BME280;66538;53.150;18.160;2023-12-29T01:29:34;100719.77;;;5.88;100.00
77454;BME280;66538;53.150;18.160;2023-12-29T01:32:01;100714.98;;;5.84;100.00
77454;BME280;66538;53.150;18.160;2023-12-29T01:34:29;100721.83;;;5.84;100.00
77454;BME280;66538;53.150;18.160;2023-12-29T01:37:02;100721.27;;;5.85;100.00
77454;BME280;66538;53.150;18.160;2023-12-29T01:39:29;100718.92;;;5.84;100.00
77454;BME280;66538;53.150;18.160;2023-12-29T01:41:56;100714.37;;;5.84;100.00
77454;BME280;66538;53.150;18.160;2023-12-29T01:44:23;100709.19;;;5.82;100.00
77454;BME280;66538;53.150;18.160;2023-12-29T01:46:53;100704.55;;;5.81;100.00
77454;BME280;66538;53.150;18.160;2023-12-29T01:49:21;100708.05;;;5.80;100.00
77454;BME280;66538;53.150;18.160;2023-12-29T01:51:57;100707.68;;;5.77;100.00
77454;BME280;66538;53.150;18.160;2023-12-29T01:54:34;100708.04;;;5.76;100.00
77454;BME280;66538;53.150;18.160;2023-12-29T01:57:02;100706.08;;;5.74;100.00
77454;BME280;66538;53.150;18.160;2023-12-29T01:59:29;100701.58;;;5.73;100.00
77454;BME280;66538;53.150;18.160;2023-12-29T02:01:57;100693.83;;;5.71;100.00
77454;BME280;66538;53.150;18.160;2023-12-29T02:04:25;100690.26;;;5.70;100.00
77454;BME280;66538;53.150;18.160;2023-12-29T02:06:52;100683.45;;;5.67;100.00
77454;BME280;66538;53.150;18.160;2023-12-29T02:09:19;100687.45;;;5.63;100.00
77454;BME280;66538;53.150;18.160;2023-12-29T02:11:46;100682.29;;;5.60;100.00
77454;BME280;66538;53.150;18.160;2023-12-29T02:14:14;100676.25;;;5.55;100.00
77454;BME280;66538;53.150;18.160;2023-12-29T02:17:11;100675.16;;;5.52;100.00
77454;BME280;66538;53.150;18.160;2023-12-29T02:19:46;100663.63;;;5.47;100.00
77454;BME280;66538;53.150;18.160;2023-12-29T02:22:13;100659.02;;;5.43;100.00
77454;BME280;66538;53.150;18.160;2023-12-29T02:24:47;100655.39;;;5.42;100.00
77454;BME280;66538;53.150;18.160;2023-12-29T02:30:09;100640.36;;;5.31;100.00
77454;BME280;66538;53.150;18.160;2023-12-29T02:32:39;100641.63;;;5.28;100.00
77454;BME280;66538;53.150;18.160;2023-12-29T02:35:09;100647.81;;;5.23;100.00
77454;BME280;66538;53.150;18.160;2023-12-29T02:37:38;100645.42;;;5.17;100.00
77454;BME280;66538;53.150;18.160;2023-12-29T02:40:07;100643.06;;;5.15;100.00
77454;BME280;66538;53.150;18.160;2023-12-29T02:42:34;100649.33;;;5.14;100.00
77454;BME280;66538;53.150;18.160;2023-12-29T02:45:02;100640.84;;;5.15;100.00
77454;BME280;66538;53.150;18.160;2023-12-29T02:47:28;100639.53;;;5.16;100.00
77454;BME280;66538;53.150;18.160;2023-12-29T02:49:55;100642.05;;;5.16;100.00
77454;BME280;66538;53.150;18.160;2023-12-29T02:52:22;100637.42;;;5.16;100.00
77454;BME280;66538;53.150;18.160;2023-12-29T02:54:48;100628.32;;;5.18;100.00
77454;BME280;66538;53.150;18.160;2023-12-29T02:57:15;100622.98;;;5.18;100.00
77454;BME280;66538;53.150;18.160;2023-12-29T02:59:41;100621.67;;;5.16;100.00
77454;BME280;66538;53.150;18.160;2023-12-29T03:02:08;100617.88;;;5.15;100.00
77454;BME280;66538;53.150;18.160;2023-12-29T03:04:34;100616.26;;;5.12;100.00
77454;BME280;66538;53.150;18.160;2023-12-29T03:07:01;100612.09;;;5.14;100.00
77454;BME280;66538;53.150;18.160;2023-12-29T03:09:28;100604.61;;;5.14;100.00
77454;BME280;66538;53.150;18.160;2023-12-29T03:11:54;100596.99;;;5.13;100.00
77454;BME280;66538;53.150;18.160;2023-12-29T03:14:21;100598.77;;;5.12;100.00
77454;BME280;66538;53.150;18.160;2023-12-29T03:16:47;100599.58;;;5.13;100.00
77454;BME280;66538;53.150;18.160;2023-12-29T03:19:14;100598.48;;;5.11;100.00
77454;BME280;66538;53.150;18.160;2023-12-29T03:21:40;100596.25;;;5.11;100.00
77454;BME280;66538;53.150;18.160;2023-12-29T03:24:07;100599.27;;;5.13;100.00
77454;BME280;66538;53.150;18.160;2023-12-29T03:26:34;100601.96;;;5.16;100.00
77454;BME280;66538;53.150;18.160;2023-12-29T03:29:00;100602.74;;;5.17;100.00
77454;BME280;66538;53.150;18.160;2023-12-29T03:31:27;100601.04;;;5.20;100.00
77454;BME280;66538;53.150;18.160;2023-12-29T03:33:53;100593.19;;;5.23;100.00
77454;BME280;66538;53.150;18.160;2023-12-29T03:36:20;100593.21;;;5.29;100.00
77454;BME280;66538;53.150;18.160;2023-12-29T03:38:47;100591.98;;;5.37;100.00
77454;BME280;66538;53.150;18.160;2023-12-29T03:41:13;100593.20;;;5.42;100.00
77454;BME280;66538;53.150;18.160;2023-12-29T03:43:40;100589.95;;;5.46;100.00
77454;BME280;66538;53.150;18.160;2023-12-29T03:46:20;100589.73;;;5.54;100.00
77454;BME280;66538;53.150;18.160;2023-12-29T03:48:48;100589.41;;;5.64;100.00
77454;BME280;66538;53.150;18.160;2023-12-29T03:51:15;100585.85;;;5.70;100.00
77454;BME280;66538;53.150;18.160;2023-12-29T03:53:42;100583.70;;;5.75;100.00
77454;BME280;66538;53.150;18.160;2023-12-29T03:56:14;100578.48;;;5.76;100.00
77454;BME280;66538;53.150;18.160;2023-12-29T03:58:42;100573.59;;;5.81;100.00
77454;BME280;66538;53.150;18.160;2023-12-29T04:01:13;100571.77;;;5.84;100.00
77454;BME280;66538;53.150;18.160;2023-12-29T04:03:41;100568.98;;;5.87;100.00
77454;BME280;66538;53.150;18.160;2023-12-29T04:06:08;100562.80;;;5.91;100.00
77454;BME280;66538;53.150;18.160;2023-12-29T04:08:35;100559.26;;;5.95;100.00
77454;BME280;66538;53.150;18.160;2023-12-29T04:11:03;100558.41;;;5.98;100.00
77454;BME280;66538;53.150;18.160;2023-12-29T04:13:30;100557.81;;;5.98;100.00
77454;BME280;66538;53.150;18.160;2023-12-29T04:15:57;100553.73;;;5.99;100.00
77454;BME280;66538;53.150;18.160;2023-12-29T04:18:24;100553.92;;;5.98;100.00
77454;BME280;66538;53.150;18.160;2023-12-29T04:20:51;100544.56;;;5.96;100.00
77454;BME280;66538;53.150;18.160;2023-12-29T04:23:17;100543.92;;;5.97;100.00
77454;BME280;66538;53.150;18.160;2023-12-29T04:25:44;100540.57;;;5.95;100.00
77454;BME280;66538;53.150;18.160;2023-12-29T04:28:11;100541.34;;;5.94;100.00
77454;BME280;66538;53.150;18.160;2023-12-29T04:30:37;100540.02;;;5.91;100.00
77454;BME280;66538;53.150;18.160;2023-12-29T04:33:04;100540.18;;;5.92;100.00
77454;BME280;66538;53.150;18.160;2023-12-29T04:35:31;100535.80;;;5.91;100.00
77454;BME280;66538;53.150;18.160;2023-12-29T04:37:58;100534.14;;;5.91;100.00
77454;BME280;66538;53.150;18.160;2023-12-29T04:40:24;100533.10;;;5.93;100.00
77454;BME280;66538;53.150;18.160;2023-12-29T04:42:51;100531.73;;;5.92;100.00
77454;BME280;66538;53.150;18.160;2023-12-29T04:45:18;100530.20;;;5.91;100.00
77454;BME280;66538;53.150;18.160;2023-12-29T04:47:44;100528.11;;;5.92;100.00
77454;BME280;66538;53.150;18.160;2023-12-29T04:50:11;100524.55;;;5.91;100.00
77454;BME280;66538;53.150;18.160;2023-12-29T04:52:38;100517.60;;;5.91;100.00
77454;BME280;66538;53.150;18.160;2023-12-29T04:55:04;100506.69;;;5.90;100.00
77454;BME280;66538;53.150;18.160;2023-12-29T04:57:31;100504.23;;;5.88;100.00
77454;BME280;66538;53.150;18.160;2023-12-29T04:59:58;100497.67;;;5.88;100.00
77454;BME280;66538;53.150;18.160;2023-12-29T05:02:24;100497.91;;;5.89;100.00
77454;BME280;66538;53.150;18.160;2023-12-29T05:04:51;100491.48;;;5.92;100.00
77454;BME280;66538;53.150;18.160;2023-12-29T05:07:17;100492.34;;;5.96;100.00
77454;BME280;66538;53.150;18.160;2023-12-29T05:09:44;100492.13;;;5.96;100.00
77454;BME280;66538;53.150;18.160;2023-12-29T05:12:10;100482.67;;;5.94;100.00
77454;BME280;66538;53.150;18.160;2023-12-29T05:14:37;100480.13;;;5.93;100.00
77454;BME280;66538;53.150;18.160;2023-12-29T05:17:04;100484.92;;;5.92;100.00
77454;BME280;66538;53.150;18.160;2023-12-29T05:19:30;100483.36;;;5.90;100.00
77454;BME280;66538;53.150;18.160;2023-12-29T05:21:57;100483.75;;;5.87;100.00
77454;BME280;66538;53.150;18.160;2023-12-29T05:24:23;100485.77;;;5.86;100.00
77454;BME280;66538;53.150;18.160;2023-12-29T05:26:50;100483.80;;;5.87;100.00
77454;BME280;66538;53.150;18.160;2023-12-29T05:29:16;100487.31;;;5.87;100.00
77454;BME280;66538;53.150;18.160;2023-12-29T05:31:43;100482.61;;;5.90;100.00
77454;BME280;66538;53.150;18.160;2023-12-29T05:34:11;100481.74;;;5.93;100.00
77454;BME280;66538;53.150;18.160;2023-12-29T05:36:37;100482.20;;;5.95;100.00
77454;BME280;66538;53.150;18.160;2023-12-29T05:39:05;100480.23;;;5.96;100.00
77454;BME280;66538;53.150;18.160;2023-12-29T05:41:32;100485.46;;;6.01;100.00
77454;BME280;66538;53.150;18.160;2023-12-29T05:43:59;100489.28;;;6.02;100.00
77454;BME280;66538;53.150;18.160;2023-12-29T05:46:27;100484.61;;;6.03;100.00
77454;BME280;66538;53.150;18.160;2023-12-29T05:48:53;100474.71;;;6.05;100.00
77454;BME280;66538;53.150;18.160;2023-12-29T05:51:20;100463.33;;;6.07;100.00
77454;BME280;66538;53.150;18.160;2023-12-29T05:53:47;100457.38;;;6.09;100.00
77454;BME280;66538;53.150;18.160;2023-12-29T05:56:13;100459.50;;;6.10;100.00
77454;BME280;66538;53.150;18.160;2023-12-29T05:58:41;100459.91;;;6.10;100.00
77454;BME280;66538;53.150;18.160;2023-12-29T06:01:09;100450.52;;;6.09;100.00
77454;BME280;66538;53.150;18.160;2023-12-29T06:03:36;100446.68;;;6.10;100.00
77454;BME280;66538;53.150;18.160;2023-12-29T06:06:03;100442.57;;;6.10;100.00
77454;BME280;66538;53.150;18.160;2023-12-29T06:08:29;100439.96;;;6.09;100.00
77454;BME280;66538;53.150;18.160;2023-12-29T06:10:56;100434.48;;;6.10;100.00
77454;BME280;66538;53.150;18.160;2023-12-29T06:13:23;100441.55;;;6.10;100.00
77454;BME280;66538;53.150;18.160;2023-12-29T06:15:49;100444.98;;;6.09;100.00
77454;BME280;66538;53.150;18.160;2023-12-29T06:18:16;100443.27;;;6.07;100.00
77454;BME280;66538;53.150;18.160;2023-12-29T06:20:42;100445.98;;;6.07;100.00
77454;BME280;66538;53.150;18.160;2023-12-29T06:23:09;100451.14;;;6.11;100.00
77454;BME280;66538;53.150;18.160;2023-12-29T06:25:36;100446.58;;;6.11;100.00
77454;BME280;66538;53.150;18.160;2023-12-29T06:28:03;100441.55;;;6.11;100.00
77454;BME280;66538;53.150;18.160;2023-12-29T06:30:32;100451.50;;;6.13;100.00
77454;BME280;66538;53.150;18.160;2023-12-29T06:32:59;100447.71;;;6.15;100.00
77454;BME280;66538;53.150;18.160;2023-12-29T06:35:26;100444.23;;;6.16;100.00
77454;BME280;66538;53.150;18.160;2023-12-29T06:37:52;100449.06;;;6.18;100.00
77454;BME280;66538;53.150;18.160;2023-12-29T06:40:19;100446.79;;;6.21;100.00
77454;BME280;66538;53.150;18.160;2023-12-29T06:42:46;100443.02;;;6.26;100.00
77454;BME280;66538;53.150;18.160;2023-12-29T06:45:12;100444.29;;;6.30;100.00
77454;BME280;66538;53.150;18.160;2023-12-29T06:47:39;100440.13;;;6.34;100.00
77454;BME280;66538;53.150;18.160;2023-12-29T06:50:06;100435.05;;;6.41;100.00
77454;BME280;66538;53.150;18.160;2023-12-29T06:52:33;100431.59;;;6.47;99.96
77454;BME280;66538;53.150;18.160;2023-12-29T06:55:03;100429.83;;;6.52;99.77
77454;BME280;66538;53.150;18.160;2023-12-29T06:57:29;100428.48;;;6.57;99.76
77454;BME280;66538;53.150;18.160;2023-12-29T06:59:56;100433.89;;;6.62;99.37
77454;BME280;66538;53.150;18.160;2023-12-29T07:02:23;100431.98;;;6.64;99.51
77454;BME280;66538;53.150;18.160;2023-12-29T07:04:49;100434.75;;;6.66;99.53
77454;BME280;66538;53.150;18.160;2023-12-29T07:07:16;100434.44;;;6.67;99.34
77454;BME280;66538;53.150;18.160;2023-12-29T07:09:42;100429.27;;;6.71;99.30
77454;BME280;66538;53.150;18.160;2023-12-29T07:12:09;100429.52;;;6.74;99.32
77454;BME280;66538;53.150;18.160;2023-12-29T07:14:36;100432.74;;;6.77;98.93
77454;BME280;66538;53.150;18.160;2023-12-29T07:17:03;100441.09;;;6.80;98.80
77454;BME280;66538;53.150;18.160;2023-12-29T07:19:30;100447.23;;;6.83;98.69
77454;BME280;66538;53.150;18.160;2023-12-29T07:22:03;100435.64;;;6.84;98.52
77454;BME280;66538;53.150;18.160;2023-12-29T07:24:32;100438.93;;;6.88;98.77
77454;BME280;66538;53.150;18.160;2023-12-29T07:26:59;100444.44;;;6.92;98.63
77454;BME280;66538;53.150;18.160;2023-12-29T07:29:26;100440.77;;;6.94;98.41
77454;BME280;66538;53.150;18.160;2023-12-29T07:31:53;100435.95;;;6.96;98.46
77454;BME280;66538;53.150;18.160;2023-12-29T07:34:20;100438.53;;;6.96;98.18
77454;BME280;66538;53.150;18.160;2023-12-29T07:36:47;100448.84;;;6.99;98.23
77454;BME280;66538;53.150;18.160;2023-12-29T07:39:14;100448.37;;;7.01;98.24
77454;BME280;66538;53.150;18.160;2023-12-29T07:41:41;100441.40;;;7.00;97.81
77454;BME280;66538;53.150;18.160;2023-12-29T07:44:11;100436.69;;;7.03;97.96
77454;BME280;66538;53.150;18.160;2023-12-29T07:46:40;100436.27;;;7.04;98.09
77454;BME280;66538;53.150;18.160;2023-12-29T07:49:07;100433.79;;;7.05;97.87
77454;BME280;66538;53.150;18.160;2023-12-29T07:51:34;100427.94;;;7.08;97.84
77454;BME280;66538;53.150;18.160;2023-12-29T07:54:00;100427.19;;;7.09;97.85
77454;BME280;66538;53.150;18.160;2023-12-29T07:56:27;100432.84;;;7.12;97.65
77454;BME280;66538;53.150;18.160;2023-12-29T07:58:53;100431.36;;;7.14;97.00
77454;BME280;66538;53.150;18.160;2023-12-29T08:01:20;100433.02;;;7.19;97.06
77454;BME280;66538;53.150;18.160;2023-12-29T08:03:47;100431.02;;;7.23;97.09
77454;BME280;66538;53.150;18.160;2023-12-29T08:06:13;100429.16;;;7.31;97.21
77454;BME280;66538;53.150;18.160;2023-12-29T08:08:41;100425.98;;;7.37;96.84
77454;BME280;66538;53.150;18.160;2023-12-29T08:11:14;100431.23;;;7.44;95.67
77454;BME280;66538;53.150;18.160;2023-12-29T08:13:43;100436.57;;;7.52;96.19
77454;BME280;66538;53.150;18.160;2023-12-29T08:16:11;100435.14;;;7.56;95.90
77454;BME280;66538;53.150;18.160;2023-12-29T08:18:37;100432.27;;;7.60;95.92
77454;BME280;66538;53.150;18.160;2023-12-29T08:21:04;100437.31;;;7.63;95.51
77454;BME280;66538;53.150;18.160;2023-12-29T08:23:31;100438.34;;;7.63;95.74
77454;BME280;66538;53.150;18.160;2023-12-29T08:25:57;100435.16;;;7.67;95.07
77454;BME280;66538;53.150;18.160;2023-12-29T08:28:27;100440.80;;;7.71;95.36
77454;BME280;66538;53.150;18.160;2023-12-29T08:30:53;100431.59;;;7.75;95.34
77454;BME280;66538;53.150;18.160;2023-12-29T08:33:20;100421.18;;;7.84;95.91
77454;BME280;66538;53.150;18.160;2023-12-29T08:35:46;100423.48;;;7.92;95.81
77454;BME280;66538;53.150;18.160;2023-12-29T08:38:13;100422.66;;;8.00;94.62
77454;BME280;66538;53.150;18.160;2023-12-29T08:40:40;100427.23;;;8.04;94.26
77454;BME280;66538;53.150;18.160;2023-12-29T08:43:08;100426.45;;;8.07;94.35
77454;BME280;66538;53.150;18.160;2023-12-29T08:45:35;100425.32;;;8.09;94.79
77454;BME280;66538;53.150;18.160;2023-12-29T08:48:02;100424.41;;;8.10;94.61
77454;BME280;66538;53.150;18.160;2023-12-29T08:50:29;100424.95;;;8.16;94.42
77454;BME280;66538;53.150;18.160;2023-12-29T08:52:56;100419.63;;;8.24;94.53
77454;BME280;66538;53.150;18.160;2023-12-29T08:55:23;100427.60;;;8.27;93.93
77454;BME280;66538;53.150;18.160;2023-12-29T08:57:49;100425.60;;;8.28;94.04
77454;BME280;66538;53.150;18.160;2023-12-29T09:00:16;100424.09;;;8.29;93.72
77454;BME280;66538;53.150;18.160;2023-12-29T09:02:43;100426.42;;;8.31;93.36
77454;BME280;66538;53.150;18.160;2023-12-29T09:05:10;100423.00;;;8.35;93.85
77454;BME280;66538;53.150;18.160;2023-12-29T09:07:37;100419.30;;;8.41;93.66
77454;BME280;66538;53.150;18.160;2023-12-29T09:10:04;100418.52;;;8.46;93.67
77454;BME280;66538;53.150;18.160;2023-12-29T09:12:34;100421.10;;;8.51;93.50
77454;BME280;66538;53.150;18.160;2023-12-29T09:15:01;100419.27;;;8.55;93.39
77454;BME280;66538;53.150;18.160;2023-12-29T09:17:28;100420.86;;;8.60;93.14
77454;BME280;66538;53.150;18.160;2023-12-29T09:19:56;100421.64;;;8.63;94.11
77454;BME280;66538;53.150;18.160;2023-12-29T09:22:22;100419.11;;;8.64;94.34
77454;BME280;66538;53.150;18.160;2023-12-29T09:24:49;100416.64;;;8.67;93.73
77454;BME280;66538;53.150;18.160;2023-12-29T09:27:16;100409.56;;;8.73;93.54
77454;BME280;66538;53.150;18.160;2023-12-29T09:29:43;100404.14;;;8.77;93.52
77454;BME280;66538;53.150;18.160;2023-12-29T09:32:10;100395.74;;;8.77;93.13
77454;BME280;66538;53.150;18.160;2023-12-29T09:34:36;100400.04;;;8.82;93.42
77454;BME280;66538;53.150;18.160;2023-12-29T09:37:03;100394.08;;;8.84;92.86
77454;BME280;66538;53.150;18.160;2023-12-29T09:39:30;100384.50;;;8.85;92.33
77454;BME280;66538;53.150;18.160;2023-12-29T09:41:58;100376.60;;;8.89;91.95
77454;BME280;66538;53.150;18.160;2023-12-29T09:44:28;100374.61;;;8.90;91.99
77454;BME280;66538;53.150;18.160;2023-12-29T09:47:01;100364.73;;;8.95;91.84
77454;BME280;66538;53.150;18.160;2023-12-29T09:49:37;100366.86;;;9.00;91.67
77454;BME280;66538;53.150;18.160;2023-12-29T09:52:07;100380.62;;;9.06;90.58
77454;BME280;66538;53.150;18.160;2023-12-29T09:54:36;100383.12;;;9.10;89.92
77454;BME280;66538;53.150;18.160;2023-12-29T09:57:06;100388.29;;;9.19;89.42
77454;BME280;66538;53.150;18.160;2023-12-29T09:59:35;100390.58;;;9.26;88.93
77454;BME280;66538;53.150;18.160;2023-12-29T10:02:05;100387.44;;;9.31;88.80
77454;BME280;66538;53.150;18.160;2023-12-29T10:04:31;100389.63;;;9.37;87.61
77454;BME280;66538;53.150;18.160;2023-12-29T10:07:02;100383.77;;;9.45;87.53
77454;BME280;66538;53.150;18.160;2023-12-29T10:09:37;100380.27;;;9.54;87.89
77454;BME280;66538;53.150;18.160;2023-12-29T10:12:05;100384.08;;;9.61;87.18
77454;BME280;66538;53.150;18.160;2023-12-29T10:14:48;100376.22;;;9.67;87.63
77454;BME280;66538;53.150;18.160;2023-12-29T10:17:41;100373.06;;;9.70;87.12
77454;BME280;66538;53.150;18.160;2023-12-29T10:20:20;100366.34;;;9.71;86.13
77454;BME280;66538;53.150;18.160;2023-12-29T10:23:11;100371.66;;;9.70;85.17
77454;BME280;66538;53.150;18.160;2023-12-29T10:25:43;100375.73;;;9.71;86.07
77454;BME280;66538;53.150;18.160;2023-12-29T10:28:10;100381.10;;;9.70;85.52
77454;BME280;66538;53.150;18.160;2023-12-29T10:30:36;100376.59;;;9.71;85.24
77454;BME280;66538;53.150;18.160;2023-12-29T10:33:04;100384.94;;;9.71;85.76
77454;BME280;66538;53.150;18.160;2023-12-29T10:35:31;100380.33;;;9.70;84.15
77454;BME280;66538;53.150;18.160;2023-12-29T10:38:18;100383.37;;;9.71;85.10
77454;BME280;66538;53.150;18.160;2023-12-29T10:40:45;100379.90;;;9.72;84.77
77454;BME280;66538;53.150;18.160;2023-12-29T10:43:11;100376.65;;;9.77;85.09
77454;BME280;66538;53.150;18.160;2023-12-29T10:45:38;100374.32;;;9.81;84.18
77454;BME280;66538;53.150;18.160;2023-12-29T10:48:05;100376.27;;;9.89;84.67
77454;BME280;66538;53.150;18.160;2023-12-29T10:50:42;100377.34;;;9.93;84.01
77454;BME280;66538;53.150;18.160;2023-12-29T10:53:14;100375.48;;;10.01;84.12
77454;BME280;66538;53.150;18.160;2023-12-29T10:55:40;100373.05;;;10.08;83.51
77454;BME280;66538;53.150;18.160;2023-12-29T10:58:08;100371.23;;;10.16;83.82
77454;BME280;66538;53.150;18.160;2023-12-29T11:00:34;100369.03;;;10.23;82.71
77454;BME280;66538;53.150;18.160;2023-12-29T11:03:01;100370.30;;;10.32;81.93
77454;BME280;66538;53.150;18.160;2023-12-29T11:05:28;100381.50;;;10.48;83.77
77454;BME280;66538;53.150;18.160;2023-12-29T11:07:55;100369.28;;;10.65;82.32
77454;BME280;66538;53.150;18.160;2023-12-29T11:10:22;100364.61;;;10.80;82.87
77454;BME280;66538;53.150;18.160;2023-12-29T11:12:48;100364.18;;;10.90;81.91
77454;BME280;66538;53.150;18.160;2023-12-29T11:15:16;100359.88;;;10.94;80.61
77454;BME280;66538;53.150;18.160;2023-12-29T11:17:43;100351.17;;;10.96;80.41
77454;BME280;66538;53.150;18.160;2023-12-29T11:20:16;100358.60;;;11.00;80.78
77454;BME280;66538;53.150;18.160;2023-12-29T11:22:46;100361.77;;;11.02;80.99
77454;BME280;66538;53.150;18.160;2023-12-29T11:25:13;100365.46;;;11.03;80.64
77454;BME280;66538;53.150;18.160;2023-12-29T11:27:42;100370.08;;;11.05;80.55
77454;BME280;66538;53.150;18.160;2023-12-29T11:30:11;100369.33;;;11.03;80.01
77454;BME280;66538;53.150;18.160;2023-12-29T11:33:01;100363.42;;;11.00;79.72
77454;BME280;66538;53.150;18.160;2023-12-29T11:35:50;100355.96;;;10.94;80.29
77454;BME280;66538;53.150;18.160;2023-12-29T11:41:15;100351.23;;;10.81;80.93
77454;BME280;66538;53.150;18.160;2023-12-29T11:43:44;100357.41;;;10.75;81.46
77454;BME280;66538;53.150;18.160;2023-12-29T11:46:40;100354.61;;;10.69;81.61
77454;BME280;66538;53.150;18.160;2023-12-29T11:49:10;100355.02;;;10.61;81.26
77454;BME280;66538;53.150;18.160;2023-12-29T11:54:09;100356.88;;;10.59;81.28
77454;BME280;66538;53.150;18.160;2023-12-29T11:56:40;100352.91;;;10.61;80.91
77454;BME280;66538;53.150;18.160;2023-12-29T11:59:23;100351.41;;;10.71;80.36
77454;BME280;66538;53.150;18.160;2023-12-29T12:01:52;100345.50;;;10.77;80.55
77454;BME280;66538;53.150;18.160;2023-12-29T12:04:40;100346.42;;;10.78;80.71
77454;BME280;66538;53.150;18.160;2023-12-29T12:07:15;100350.67;;;10.83;80.38
77454;BME280;66538;53.150;18.160;2023-12-29T12:09:42;100354.16;;;10.83;79.85
77454;BME280;66538;53.150;18.160;2023-12-29T12:12:10;100357.86;;;10.81;80.80
77454;BME280;66538;53.150;18.160;2023-12-29T12:14:55;100359.25;;;10.77;80.60
77454;BME280;66538;53.150;18.160;2023-12-29T12:17:29;100358.71;;;10.73;80.77
77454;BME280;66538;53.150;18.160;2023-12-29T12:20:14;100360.19;;;10.72;81.06
77454;BME280;66538;53.150;18.160;2023-12-29T12:22:41;100349.61;;;10.70;80.18
77454;BME280;66538;53.150;18.160;2023-12-29T12:25:11;100355.64;;;10.68;81.16
77454;BME280;66538;53.150;18.160;2023-12-29T12:27:38;100353.87;;;10.65;80.80
77454;BME280;66538;53.150;18.160;2023-12-29T12:30:05;100354.36;;;10.65;80.39
77454;BME280;66538;53.150;18.160;2023-12-29T12:32:32;100352.68;;;10.63;80.36
77454;BME280;66538;53.150;18.160;2023-12-29T12:34:59;100362.89;;;10.61;80.46
77454;BME280;66538;53.150;18.160;2023-12-29T12:37:27;100374.09;;;10.59;80.81
77454;BME280;66538;53.150;18.160;2023-12-29T12:39:54;100372.36;;;10.56;80.63
77454;BME280;66538;53.150;18.160;2023-12-29T12:42:22;100362.31;;;10.54;81.01
77454;BME280;66538;53.150;18.160;2023-12-29T12:44:55;100367.75;;;10.53;81.61
77454;BME280;66538;53.150;18.160;2023-12-29T12:47:44;100368.41;;;10.50;82.12
77454;BME280;66538;53.150;18.160;2023-12-29T12:50:14;100361.91;;;10.46;81.94
77454;BME280;66538;53.150;18.160;2023-12-29T12:52:41;100363.17;;;10.44;81.82
77454;BME280;66538;53.150;18.160;2023-12-29T12:55:09;100365.23;;;10.43;82.10
77454;BME280;66538;53.150;18.160;2023-12-29T12:57:37;100363.89;;;10.41;81.86